Pollock, Missouri
Current Conditions -  °F | °C
As of 4:55 PM on Friday 31 Oct 2014 (Local Time) from KTVK Reporting Station
Clear Clear  
Wind Chill: 34°   Ceiling: Unl
Heat Index: 41°   Visibility: 10mi
Dew Point: 18°   Wind: 13mph
Humidity: 39%   Direction: 330°NNW
Pressure: 30.43"   Gusts: 21mph
Location:  40.36°N, 93.08°W
Report Text: KTVK 312155Z AUTO 33011G18KT 10SM CLR 05/M08 A3043 RMK AO2
Loading
Personal Weather Stations






























Interactive Weather Map
Tropical Storm Tracking
New forecast layout! Learn more

10-Day Weather Forecast

Advertisements
Track Severe Weather on mobile